Time;durP1;ratioP1;P1;durP2;ratioP2;P2;SDS_P1;SDS_P2;PMS_P1;PMS_P2;Temp;Humidity;BMP_temperature;BMP_pressure;BME280_temperature;BME280_humidity;BME280_pressure;Samples;Min_cycle;Max_cycle;Signal;HPM_P1;HPM_P2
2023/03/18 00:00:42;;;;;;;6.13;2.30;;;;;;;20.75;37.94;100570.03;4973022;28;20037;-65
2023/03/18 00:03:08;;;;;;;7.30;2.88;;;;;;;20.77;37.47;100584.31;4956745;28;20452;-64
2023/03/18 00:05:34;;;;;;;5.93;2.38;;;;;;;20.69;37.23;100574.41;4972633;28;20119;-64
2023/03/18 00:08:01;;;;;;;7.47;2.70;;;;;;;20.74;37.79;100573.84;4972261;28;20065;-66
2023/03/18 00:10:27;;;;;;;9.07;2.25;;;;;;;20.74;38.00;100576.56;4956608;28;20059;-64
2023/03/18 00:12:52;;;;;;;6.03;3.38;;;;;;;20.71;37.61;100568.78;4972498;28;20438;-64
2023/03/18 00:15:18;;;;;;;7.55;2.63;;;;;;;20.70;37.38;100556.22;4972819;28;20578;-65
2023/03/18 00:17:45;;;;;;;4.38;2.22;;;;;;;20.79;37.84;100591.25;4972661;28;20073;-64
2023/03/18 00:20:12;;;;;;;6.95;2.60;;;;;;;20.78;37.70;100591.44;4972683;28;20422;-64
2023/03/18 00:22:39;;;;;;;4.00;1.88;;;;;;;20.76;38.36;100598.97;4956720;28;20090;-64
2023/03/18 00:25:07;;;;;;;9.32;2.30;;;;;;;20.74;38.60;100601.06;4972620;28;20023;-65
2023/03/18 00:27:34;;;;;;;9.00;3.53;;;;;;;20.71;38.51;100617.78;4957006;28;20027;-64
2023/03/18 00:30:00;;;;;;;12.85;2.67;;;;;;;20.68;38.10;100638.09;4972474;28;20046;-64
2023/03/18 00:32:26;;;;;;;6.82;2.75;;;;;;;20.58;38.86;100628.56;4956479;28;20516;-64
2023/03/18 00:34:52;;;;;;;9.93;3.13;;;;;;;20.44;39.48;100627.63;4972408;28;20050;-63
2023/03/18 00:37:29;;;;;;;9.25;2.72;;;;;;;20.35;39.71;100639.72;4956353;28;20372;-64
2023/03/18 00:40:03;;;;;;;9.18;3.13;;;;;;;20.18;39.56;100620.06;4957698;28;20031;-63
2023/03/18 00:42:35;;;;;;;5.80;3.10;;;;;;;20.13;39.82;100611.66;4943323;28;20029;-63
2023/03/18 00:45:03;;;;;;;11.27;2.78;;;;;;;20.13;39.88;100629.84;4973229;28;20045;-62
2023/03/18 00:47:28;;;;;;;12.57;3.17;;;;;;;20.07;40.35;100620.59;4957446;28;20031;-63
2023/03/18 00:49:53;;;;;;;8.43;3.03;;;;;;;20.01;39.76;100626.84;4957274;28;20520;-63
2023/03/18 00:52:19;;;;;;;12.43;3.22;;;;;;;19.92;40.13;100598.09;4957139;28;20034;-63
2023/03/18 00:54:44;;;;;;;7.43;2.47;;;;;;;19.89;40.69;100565.00;4957343;28;20051;-63
2023/03/18 00:57:10;;;;;;;11.60;3.28;;;;;;;19.88;40.70;100566.88;4973159;28;20102;-63
2023/03/18 00:59:35;;;;;;;5.82;3.00;;;;;;;19.89;40.97;100584.88;4974190;28;20125;-64
2023/03/18 01:02:01;;;;;;;8.82;2.47;;;;;;;19.87;40.94;100597.84;4974465;28;20041;-64
2023/03/18 01:04:26;;;;;;;6.68;2.95;;;;;;;19.82;41.42;100600.28;4941006;28;20038;-63
2023/03/18 01:06:52;;;;;;;7.63;3.30;;;;;;;19.75;41.08;100602.97;4974177;28;20027;-64
2023/03/18 01:09:17;;;;;;;6.35;3.10;;;;;;;19.65;41.28;100593.44;4973755;28;20078;-63
2023/03/18 01:11:43;;;;;;;8.23;2.65;;;;;;;19.67;41.22;100602.25;4972942;28;20035;-63
2023/03/18 01:14:09;;;;;;;8.98;3.08;;;;;;;19.65;41.39;100594.25;4973269;28;20030;-63
2023/03/18 01:16:34;;;;;;;11.10;3.03;;;;;;;19.70;41.02;100610.00;4973039;28;20035;-63
2023/03/18 01:19:00;;;;;;;7.25;3.00;;;;;;;19.61;41.98;100601.13;4972841;28;20118;-62
2023/03/18 01:21:25;;;;;;;6.70;3.20;;;;;;;19.71;41.18;100603.53;4973410;28;20475;-64
2023/03/18 01:23:51;;;;;;;5.75;2.78;;;;;;;19.66;41.15;100586.97;4972723;28;20449;-64
2023/03/18 01:26:16;;;;;;;11.38;3.63;;;;;;;19.66;41.72;100592.41;4972622;28;20035;-62
2023/03/18 01:28:42;;;;;;;10.15;3.60;;;;;;;19.75;41.39;100604.84;4972606;28;20042;-63
2023/03/18 01:31:08;;;;;;;6.65;2.58;;;;;;;19.76;41.54;100606.53;4972383;28;20037;-63
2023/03/18 01:33:34;;;;;;;8.73;2.92;;;;;;;19.67;41.74;100592.22;4973240;28;20027;-63
2023/03/18 01:36:02;;;;;;;9.20;3.88;;;;;;;19.70;41.77;100607.28;4973890;28;20054;-63
2023/03/18 01:38:31;;;;;;;5.40;3.28;;;;;;;19.72;42.23;100618.81;4976552;28;20507;-62
2023/03/18 01:40:58;;;;;;;10.68;3.13;;;;;;;19.71;41.98;100614.41;4976455;28;20039;-63
2023/03/18 01:43:30;;;;;;;8.70;2.90;;;;;;;19.72;42.26;100610.66;4992831;28;20130;-63
2023/03/18 01:45:58;;;;;;;5.20;3.00;;;;;;;19.73;42.17;100612.34;4976405;28;20029;-63
2023/03/18 01:48:26;;;;;;;7.15;2.92;;;;;;;19.69;42.09;100614.59;4993449;28;20027;-63
2023/03/18 01:50:55;;;;;;;6.47;3.53;;;;;;;19.70;42.75;100612.72;4976343;28;20037;-63
2023/03/18 01:53:23;;;;;;;9.93;3.53;;;;;;;19.67;42.84;100604.97;4976415;28;20524;-63
2023/03/18 01:55:49;;;;;;;7.03;3.00;;;;;;;19.65;42.59;100610.56;4959965;28;20130;-63
2023/03/18 01:58:20;;;;;;;8.15;3.42;;;;;;;19.67;42.76;100608.53;4977399;28;20513;-63
2023/03/18 02:00:58;;;;;;;5.53;3.33;;;;;;;19.68;42.45;100607.47;4992700;28;20043;-63
2023/03/18 02:03:26;;;;;;;6.13;3.42;;;;;;;19.68;43.25;100598.50;4976302;28;20037;-64
2023/03/18 02:05:52;;;;;;;7.35;2.60;;;;;;;19.71;43.02;100598.94;4960156;28;20470;-63
2023/03/18 02:08:18;;;;;;;8.48;3.25;;;;;;;19.67;43.19;100591.38;4959866;28;20122;-63
2023/03/18 02:10:44;;;;;;;8.75;3.60;;;;;;;19.69;42.49;100592.00;4959722;28;20113;-63
2023/03/18 02:13:11;;;;;;;10.85;4.22;;;;;;;19.77;42.63;100605.47;4975972;28;20106;-63
2023/03/18 02:15:43;;;;;;;7.40;3.17;;;;;;;19.61;42.80;100573.97;4976339;28;20037;-63
2023/03/18 02:18:17;;;;;;;10.40;3.63;;;;;;;19.68;43.12;100584.91;4959867;28;20055;-63
2023/03/18 02:20:54;;;;;;;11.32;3.65;;;;;;;19.74;42.81;100597.69;4959691;28;20031;-64
2023/03/18 02:23:26;;;;;;;7.57;3.85;;;;;;;19.72;42.67;100605.22;4976028;28;20098;-63
2023/03/18 02:26:14;;;;;;;10.82;3.42;;;;;;;19.69;43.00;100602.88;4977024;28;20086;-63
2023/03/18 02:28:40;;;;;;;6.57;3.17;;;;;;;19.60;42.91;100606.75;4966698;28;20034;-64
2023/03/18 02:31:10;;;;;;;5.00;2.80;;;;;;;19.68;43.11;100606.66;4959695;28;20054;-63
2023/03/18 02:33:38;;;;;;;12.07;4.18;;;;;;;19.53;42.59;100584.13;4960460;28;20494;-63
2023/03/18 02:36:06;;;;;;;5.93;3.50;;;;;;;19.68;43.25;100606.66;4959912;28;20166;-63
2023/03/18 02:38:32;;;;;;;12.65;3.75;;;;;;;19.68;43.47;100604.75;4956425;28;20031;-63
2023/03/18 02:40:57;;;;;;;14.02;4.35;;;;;;;19.68;43.07;100603.94;4956122;28;20050;-64
2023/03/18 02:43:26;;;;;;;4.32;3.40;;;;;;;19.66;43.40;100601.41;4957327;28;20038;-63
2023/03/18 02:46:08;;;;;;;6.63;3.10;;;;;;;19.68;43.36;100603.94;4956057;28;20055;-65
2023/03/18 02:48:42;;;;;;;6.78;3.38;;;;;;;19.67;43.68;100605.81;4956477;28;20098;-62
2023/03/18 02:51:09;;;;;;;8.30;3.75;;;;;;;19.68;43.50;100603.94;4955903;28;20058;-62
2023/03/18 02:53:35;;;;;;;13.88;3.67;;;;;;;19.68;43.30;100604.75;4971916;28;20087;-62
2023/03/18 02:56:01;;;;;;;11.55;3.35;;;;;;;19.70;43.41;100612.72;4955995;28;20043;-62
2023/03/18 02:58:27;;;;;;;6.72;3.35;;;;;;;19.70;43.23;100612.72;4939774;28;20062;-62
2023/03/18 03:00:53;;;;;;;6.90;3.20;;;;;;;19.70;43.40;100618.16;4939647;28;20166;-64
2023/03/18 03:03:19;;;;;;;7.18;3.53;;;;;;;19.70;43.07;100619.00;4957362;29;20118;-65
2023/03/18 03:05:44;;;;;;;10.90;3.83;;;;;;;19.72;43.91;100627.81;4955931;28;20495;-64
2023/03/18 03:08:10;;;;;;;8.48;3.38;;;;;;;19.65;44.14;100607.03;4939681;28;20036;-65
2023/03/18 03:10:36;;;;;;;7.93;3.85;;;;;;;19.71;43.74;100622.53;4940010;28;20491;-63
2023/03/18 03:13:01;;;;;;;7.57;3.88;;;;;;;19.68;43.53;100625.69;4939543;28;20449;-62
2023/03/18 03:15:27;;;;;;;13.18;4.25;;;;;;;19.72;43.63;100629.69;4939905;29;20403;-63
2023/03/18 03:17:53;;;;;;;8.30;4.10;;;;;;;19.71;43.42;100633.41;4939579;28;20118;-62
2023/03/18 03:20:19;;;;;;;6.00;3.30;;;;;;;19.73;43.75;100644.97;4955766;28;20059;-63
2023/03/18 03:22:45;;;;;;;7.85;3.90;;;;;;;19.72;43.89;100641.41;4939730;28;20059;-64
2023/03/18 03:25:11;;;;;;;6.20;3.72;;;;;;;19.69;44.61;100644.50;4923953;28;22183;-63
2023/03/18 03:27:36;;;;;;;5.28;3.47;;;;;;;19.64;43.99;100640.69;4941190;29;20038;-63
2023/03/18 03:30:04;;;;;;;10.52;4.07;;;;;;;19.51;43.62;100624.22;4941242;28;20407;-64
2023/03/18 03:32:30;;;;;;;8.20;3.78;;;;;;;19.58;43.92;100646.88;4955279;28;20055;-63
2023/03/18 03:34:56;;;;;;;7.55;4.35;;;;;;;19.47;44.24;100628.34;4956556;28;20530;-64
2023/03/18 03:37:21;;;;;;;9.93;3.75;;;;;;;19.43;44.73;100621.63;4955126;28;20031;-64
2023/03/18 03:39:47;;;;;;;10.40;4.03;;;;;;;19.49;44.07;100648.84;4955494;29;20070;-63
2023/03/18 03:42:13;;;;;;;6.05;3.42;;;;;;;19.48;43.94;100662.66;4939322;28;20495;-64
2023/03/18 03:44:39;;;;;;;6.95;3.97;;;;;;;19.46;44.29;100665.53;4956490;28;20038;-63
2023/03/18 03:47:06;;;;;;;8.63;4.03;;;;;;;19.45;44.87;100661.16;4956117;28;20031;-63
2023/03/18 03:49:31;;;;;;;9.63;3.83;;;;;;;19.45;43.86;100660.31;4956262;28;20027;-64
2023/03/18 03:51:57;;;;;;;5.60;3.45;;;;;;;19.39;44.62;100658.34;4954839;28;20493;-64
2023/03/18 03:54:24;;;;;;;8.32;3.80;;;;;;;19.46;44.30;100667.41;4939076;29;20047;-63
2023/03/18 03:56:50;;;;;;;5.90;3.03;;;;;;;19.38;44.05;100662.06;4954550;28;20062;-63
2023/03/18 03:59:16;;;;;;;9.45;3.88;;;;;;;19.37;44.75;100654.97;4938380;28;20059;-64
2023/03/18 04:01:41;;;;;;;6.63;3.30;;;;;;;19.43;44.38;100675.97;4955948;28;20023;-64
2023/03/18 04:04:06;;;;;;;9.18;3.67;;;;;;;19.37;44.44;100668.53;4955741;28;20042;-64
2023/03/18 04:06:32;;;;;;;5.38;3.35;;;;;;;19.44;44.68;100674.91;4954868;28;20031;-63
2023/03/18 04:08:57;;;;;;;9.73;3.85;;;;;;;19.46;44.39;100681.00;4938463;28;20039;-63
2023/03/18 04:11:23;;;;;;;8.27;4.07;;;;;;;19.40;44.53;100665.47;4954566;28;20039;-63
2023/03/18 04:13:48;;;;;;;6.38;3.55;;;;;;;19.45;44.55;100679.34;4938405;28;20033;-64
2023/03/18 04:16:15;;;;;;;7.68;3.95;;;;;;;19.44;44.44;100688.50;4938801;28;20028;-63
2023/03/18 04:18:41;;;;;;;7.15;3.85;;;;;;;19.44;44.94;100688.50;4955049;29;20031;-64
2023/03/18 04:21:07;;;;;;;8.25;3.78;;;;;;;19.42;44.67;100690.56;4938501;28;20082;-63
2023/03/18 04:23:33;;;;;;;6.88;3.95;;;;;;;19.33;44.89;100680.81;4954278;28;20090;-64
2023/03/18 04:25:58;;;;;;;6.97;3.60;;;;;;;19.32;44.35;100690.00;4954334;28;20031;-64
2023/03/18 04:28:23;;;;;;;5.68;3.10;;;;;;;19.38;44.70;100697.38;4954146;28;20454;-64
2023/03/18 04:30:49;;;;;;;4.40;3.30;;;;;;;19.34;44.57;100705.09;4954655;29;20098;-63
2023/03/18 04:33:15;;;;;;;4.97;3.25;;;;;;;19.23;45.00;100699.28;4954869;28;20035;-63
2023/03/18 04:35:43;;;;;;;5.50;3.10;;;;;;;19.29;45.05;100710.22;4954073;28;20503;-63
2023/03/18 04:38:09;;;;;;;9.27;3.17;;;;;;;19.24;44.76;100709.09;4955255;28;20038;-63
2023/03/18 04:40:34;;;;;;;7.95;3.65;;;;;;;19.21;45.31;100706.78;4954001;28;20134;-63
2023/03/18 04:43:00;;;;;;;8.68;4.00;;;;;;;19.21;45.05;100707.59;4938138;28;20034;-64
2023/03/18 04:45:25;;;;;;;5.72;4.00;;;;;;;19.19;44.93;100696.94;4938404;29;20434;-64
2023/03/18 04:47:51;;;;;;;7.25;3.70;;;;;;;19.24;44.71;100695.50;4953799;28;20575;-63
2023/03/18 04:50:17;;;;;;;8.38;3.70;;;;;;;19.26;45.07;100707.06;4955049;28;20035;-64
2023/03/18 04:52:43;;;;;;;7.18;3.30;;;;;;;19.14;45.05;100690.38;4953871;28;20039;-64
2023/03/18 04:55:10;;;;;;;7.25;3.85;;;;;;;19.13;45.62;100688.69;4937666;28;20051;-64
2023/03/18 04:57:37;;;;;;;6.10;3.70;;;;;;;19.17;44.75;100715.31;4938260;29;20065;-64
2023/03/18 05:00:10;;;;;;;7.00;3.63;;;;;;;19.15;45.24;100711.09;4954860;28;20047;-64
2023/03/18 05:02:35;;;;;;;;;;;;;;;19.11;45.18;100710.63;4954219;28;20123;-63
2023/03/18 05:05:00;;;;;;;6.97;3.70;;;;;;;19.07;44.65;100709.28;4954746;28;19957;-64
2023/03/18 05:07:26;;;;;;;6.40;4.00;;;;;;;19.01;44.47;100709.22;4958330;28;20035;-64
2023/03/18 05:09:52;;;;;;;8.45;3.80;;;;;;;18.97;45.18;100708.75;4957019;28;20034;-64
2023/03/18 05:12:17;;;;;;;5.07;3.63;;;;;;;18.92;45.44;100711.16;4972718;28;20029;-63
2023/03/18 05:14:43;;;;;;;8.00;3.60;;;;;;;18.91;45.01;100717.63;4956808;28;20035;-63
2023/03/18 05:17:14;;;;;;;8.65;3.60;;;;;;;18.88;45.36;100715.28;4956619;28;20172;-63
2023/03/18 05:19:47;;;;;;;9.23;3.38;;;;;;;18.78;45.04;100708.44;4957396;28;20063;-63
2023/03/18 05:22:15;;;;;;;8.25;3.78;;;;;;;18.81;45.59;100719.78;4957018;28;20037;-63
2023/03/18 05:24:42;;;;;;;7.55;3.55;;;;;;;18.80;45.17;100723.50;4957410;28;20026;-64
2023/03/18 05:27:08;;;;;;;10.93;3.60;;;;;;;18.80;45.53;100717.22;4956773;28;20034;-63
2023/03/18 05:29:33;;;;;;;5.93;3.55;;;;;;;18.79;44.98;100716.38;4972824;28;20038;-63
2023/03/18 05:31:59;;;;;;;8.88;3.85;;;;;;;18.77;45.15;100713.00;4972924;28;20122;-63
2023/03/18 05:34:25;;;;;;;8.52;2.78;;;;;;;18.69;45.77;100709.53;4957067;28;20027;-63
2023/03/18 05:36:51;;;;;;;6.57;3.25;;;;;;;18.72;45.84;100715.44;4974156;28;20041;-66
2023/03/18 05:39:16;;;;;;;6.57;2.85;;;;;;;18.63;44.94;100702.97;4973394;28;20034;-63
2023/03/18 05:41:41;;;;;;;5.65;2.80;;;;;;;18.70;44.79;100722.94;4956444;28;20129;-63
2023/03/18 05:44:07;;;;;;;4.65;2.90;;;;;;;18.68;45.50;100714.13;4940479;28;20110;-62
2023/03/18 05:46:32;;;;;;;7.55;2.78;;;;;;;18.59;45.50;100702.50;4972604;28;20086;-63
2023/03/18 05:48:58;;;;;;;7.90;4.30;;;;;;;18.65;45.61;100719.91;4972376;28;20030;-63
2023/03/18 05:51:23;;;;;;;5.53;3.15;;;;;;;18.57;45.64;100706.41;4956930;28;20546;-63
2023/03/18 05:53:49;;;;;;;7.10;3.13;;;;;;;18.67;44.91;100731.44;4956533;28;20039;-63
2023/03/18 05:56:15;;;;;;;5.55;2.95;;;;;;;18.65;45.70;100725.34;4956341;28;20039;-62
2023/03/18 05:58:40;;;;;;;7.82;2.60;;;;;;;18.57;45.35;100709.13;4972514;28;20111;-63
2023/03/18 06:01:06;;;;;;;4.40;2.65;;;;;;;18.65;45.86;100724.50;4956267;28;20034;-63
2023/03/18 06:03:33;;;;;;;8.68;3.00;;;;;;;18.57;45.31;100712.69;4972992;28;20101;-63
2023/03/18 06:06:00;;;;;;;7.90;2.83;;;;;;;18.61;45.72;100718.59;4972571;28;20038;-63
2023/03/18 06:08:26;;;;;;;7.03;2.92;;;;;;;18.66;45.37;100726.19;4956468;28;20046;-63
2023/03/18 06:10:51;;;;;;;5.15;2.92;;;;;;;18.59;44.89;100709.81;4940294;28;20046;-63
2023/03/18 06:13:17;;;;;;;4.22;2.72;;;;;;;18.71;46.00;100723.75;4972331;28;20035;-62
2023/03/18 06:15:43;;;;;;;7.88;2.65;;;;;;;18.76;45.59;100733.03;4973890;28;20517;-62
2023/03/18 06:18:08;;;;;;;6.93;3.05;;;;;;;18.79;45.18;100726.41;4956225;28;20058;-62
2023/03/18 06:20:34;;;;;;;9.43;3.53;;;;;;;18.90;44.77;100734.09;4955033;28;20066;-63
2023/03/18 06:22:59;;;;;;;6.97;3.28;;;;;;;19.03;44.70;100735.16;4974283;28;20035;-63
2023/03/18 06:25:25;;;;;;;4.97;3.30;;;;;;;19.19;44.30;100728.69;4975957;28;20033;-63
2023/03/18 06:27:51;;;;;;;3.88;3.13;;;;;;;19.35;44.34;100739.34;4975777;28;20039;-64
2023/03/18 06:30:17;;;;;;;7.50;3.75;;;;;;;19.47;44.35;100728.88;4976036;28;20418;-63
2023/03/18 06:32:43;;;;;;;5.55;3.30;;;;;;;19.61;44.01;100733.44;4975708;28;20042;-63
2023/03/18 06:35:09;;;;;;;7.90;3.22;;;;;;;19.60;44.90;100738.03;4959509;28;20039;-63
2023/03/18 06:37:35;;;;;;;5.13;3.17;;;;;;;19.71;44.37;100739.44;4975502;28;20035;-64
2023/03/18 06:40:01;;;;;;;6.20;3.20;;;;;;;19.68;44.15;100734.41;4959242;28;20034;-63
2023/03/18 06:42:26;;;;;;;7.13;2.75;;;;;;;19.69;44.77;100736.06;4959723;28;20026;-63
2023/03/18 06:44:52;;;;;;;7.72;3.10;;;;;;;19.64;44.48;100741.22;4959341;28;20031;-63
2023/03/18 06:47:18;;;;;;;6.13;3.13;;;;;;;19.68;44.14;100751.53;4959169;28;20046;-64
2023/03/18 06:49:45;;;;;;;4.28;3.10;;;;;;;19.68;44.49;100751.53;4975381;28;20051;-63
2023/03/18 06:52:12;;;;;;;8.95;3.28;;;;;;;19.59;43.87;100732.81;4959270;28;20042;-63
2023/03/18 06:54:38;;;;;;;5.55;3.22;;;;;;;19.60;44.27;100754.34;4975614;28;20046;-63
2023/03/18 06:57:03;;;;;;;5.38;3.28;;;;;;;19.67;44.44;100762.59;4959255;28;20031;-63
2023/03/18 06:59:29;;;;;;;4.80;3.20;;;;;;;19.80;44.03;100754.59;4976230;28;20039;-63
2023/03/18 07:01:55;;;;;;;4.10;2.55;;;;;;;19.82;44.12;100751.69;4974616;28;20137;-63
2023/03/18 07:04:22;;;;;;;4.82;3.00;;;;;;;19.95;44.38;100758.13;4941776;28;20030;-64
2023/03/18 07:06:48;;;;;;;7.60;2.40;;;;;;;20.07;43.84;100767.47;4975260;28;20157;-63
2023/03/18 07:09:14;;;;;;;3.92;2.67;;;;;;;20.17;43.86;100762.56;4957490;28;20027;-63
2023/03/18 07:11:39;;;;;;;7.75;2.60;;;;;;;20.10;43.98;100764.34;4957515;28;20521;-65
2023/03/18 07:14:05;;;;;;;6.55;1.80;;;;;;;20.02;43.90;100766.34;4973653;28;20462;-62
2023/03/18 07:16:30;;;;;;;10.38;2.55;;;;;;;20.02;44.36;100769.06;4973604;28;20038;-63
2023/03/18 07:18:57;;;;;;;5.22;1.98;;;;;;;20.01;44.14;100757.38;4957263;28;20053;-63
2023/03/18 07:21:24;;;;;;;4.70;2.22;;;;;;;20.02;43.58;100759.03;4957923;28;20027;-63
2023/03/18 07:23:50;;;;;;;4.00;1.92;;;;;;;20.04;44.13;100770.59;4974776;28;20022;-63
2023/03/18 07:26:16;;;;;;;4.75;2.22;;;;;;;19.95;44.17;100760.84;4957396;28;20122;-63
2023/03/18 07:28:42;;;;;;;4.68;1.83;;;;;;;19.97;44.32;100758.78;4974738;28;20133;-63
2023/03/18 07:31:07;;;;;;;4.55;2.22;;;;;;;19.98;43.71;100760.47;4957168;28;20023;-63
2023/03/18 07:33:33;;;;;;;4.45;2.20;;;;;;;20.10;43.70;100769.78;4956841;28;20483;-64
2023/03/18 07:35:59;;;;;;;4.28;2.50;;;;;;;20.17;43.88;100778.88;4957121;28;20039;-62
2023/03/18 07:38:24;;;;;;;4.63;2.10;;;;;;;20.29;44.17;100781.97;4973201;28;20027;-63
2023/03/18 07:40:50;;;;;;;4.22;2.58;;;;;;;20.42;43.97;100783.97;4972957;28;20090;-65
2023/03/18 07:43:16;;;;;;;4.10;2.80;;;;;;;20.46;43.47;100777.13;4974391;28;20046;-65
2023/03/18 07:45:41;;;;;;;8.20;2.33;;;;;;;20.64;43.81;100796.56;4941809;28;20081;-66
2023/03/18 07:48:07;;;;;;;3.72;2.20;;;;;;;20.73;43.65;100792.66;4956901;28;20486;-65
2023/03/18 07:50:32;;;;;;;2.50;2.17;;;;;;;20.88;43.51;100796.16;4956794;28;20162;-65
2023/03/18 07:52:58;;;;;;;5.63;2.05;;;;;;;20.95;42.80;100788.03;4972948;28;20099;-65
2023/03/18 07:55:24;;;;;;;4.13;2.15;;;;;;;21.08;43.01;100802.63;4956482;28;20039;-65
2023/03/18 07:57:49;;;;;;;8.65;2.63;;;;;;;21.20;42.63;100797.47;4974360;28;20031;-65
2023/03/18 08:00:15;;;;;;;4.05;2.05;;;;;;;21.31;43.18;100800.47;4972975;28;20035;-65
2023/03/18 08:02:41;;;;;;;6.43;2.53;;;;;;;21.36;42.78;100803.44;4957857;28;20043;-65
2023/03/18 08:05:07;;;;;;;5.32;1.90;;;;;;;21.44;42.57;100800.56;4973618;28;20445;-65
2023/03/18 08:07:33;;;;;;;6.80;2.17;;;;;;;21.55;42.22;100799.19;4972995;28;20081;-64
2023/03/18 08:09:59;;;;;;;4.55;1.90;;;;;;;21.67;42.06;100799.44;4973883;28;20027;-66
2023/03/18 08:12:25;;;;;;;2.65;2.45;;;;;;;21.75;42.44;100796.53;4958210;28;20084;-66
2023/03/18 08:14:50;;;;;;;4.82;2.08;;;;;;;21.95;41.90;100800.22;4973799;28;20059;-65
2023/03/18 08:17:16;;;;;;;6.57;2.10;;;;;;;22.15;42.73;100797.56;4973895;28;20061;-65
2023/03/18 08:19:42;;;;;;;7.55;1.80;;;;;;;22.39;41.58;100795.13;4957740;28;20034;-66
2023/03/18 08:22:08;;;;;;;5.82;2.05;;;;;;;22.67;42.27;100792.25;4973791;28;20487;-66
2023/03/18 08:24:36;;;;;;;3.60;1.70;;;;;;;22.95;41.19;100805.69;4957963;28;20406;-66
2023/03/18 08:27:01;;;;;;;3.70;2.50;;;;;;;23.23;41.22;100798.13;4973531;28;20090;-66
2023/03/18 08:29:27;;;;;;;3.00;2.15;;;;;;;23.58;40.90;100805.03;4974750;28;20450;-67
2023/03/18 08:31:53;;;;;;;6.28;2.30;;;;;;;23.62;40.58;100806.28;4973636;28;20402;-66
2023/03/18 08:34:18;;;;;;;3.15;1.35;;;;;;;23.86;40.43;100806.63;4957315;28;20035;-67
2023/03/18 08:36:44;;;;;;;6.03;2.55;;;;;;;23.92;40.62;100797.56;4973836;28;20117;-66
2023/03/18 08:39:09;;;;;;;4.07;2.05;;;;;;;23.85;40.89;100800.31;4957287;28;20406;-65
2023/03/18 08:41:35;;;;;;;6.15;1.88;;;;;;;24.19;40.88;100805.47;4973246;28;20398;-67
2023/03/18 08:44:02;;;;;;;3.85;1.70;;;;;;;24.49;39.67;100802.13;4973182;28;20038;-66
2023/03/18 08:46:27;;;;;;;1.85;1.60;;;;;;;24.87;39.89;100803.75;4972280;28;20121;-67
2023/03/18 08:48:53;;;;;;;4.53;1.90;;;;;;;25.24;39.23;100803.88;4973263;28;20118;-67
2023/03/18 08:51:18;;;;;;;3.67;1.70;;;;;;;25.44;39.12;100799.88;4974684;28;20027;-66
2023/03/18 08:53:44;;;;;;;2.47;1.70;;;;;;;25.71;39.21;100803.19;4957397;28;20035;-66
2023/03/18 08:56:10;;;;;;;1.65;1.55;;;;;;;25.86;38.35;100809.16;4956918;28;20532;-66
2023/03/18 08:58:35;;;;;;;2.45;1.65;;;;;;;26.04;38.11;100806.41;4973189;28;20030;-67
2023/03/18 09:01:04;;;;;;;1.40;1.25;;;;;;;26.13;38.32;100789.59;4973077;28;20097;-66
2023/03/18 09:03:29;;;;;;;4.38;1.27;;;;;;;26.35;38.20;100793.53;4973670;28;20022;-67
2023/03/18 09:05:55;;;;;;;4.28;1.50;;;;;;;26.58;37.55;100797.19;4973305;28;20033;-67
2023/03/18 09:08:21;;;;;;;3.83;1.50;;;;;;;26.76;37.95;100788.03;4956977;28;20031;-67
2023/03/18 09:10:49;;;;;;;2.97;1.80;;;;;;;26.91;37.38;100785.69;4972997;28;20039;-67
2023/03/18 09:13:15;;;;;;;3.25;1.58;;;;;;;27.03;37.50;100771.97;4973021;28;20073;-67
2023/03/18 09:15:40;;;;;;;2.33;1.30;;;;;;;26.96;37.49;100791.34;4973568;28;20034;-67
2023/03/18 09:18:07;;;;;;;2.42;1.52;;;;;;;26.87;37.29;100784.50;4957181;28;20462;-67
2023/03/18 09:20:32;;;;;;;3.13;1.48;;;;;;;27.12;36.95;100798.88;4957096;28;20042;-67
2023/03/18 09:22:58;;;;;;;3.85;1.20;;;;;;;27.29;37.24;100781.66;4956912;28;20035;-67
2023/03/18 09:25:24;;;;;;;6.60;1.95;;;;;;;27.62;37.14;100792.91;4956718;28;20403;-65
2023/03/18 09:27:50;;;;;;;1.65;1.08;;;;;;;27.86;36.04;100800.06;4957277;28;20041;-66
2023/03/18 09:30:16;;;;;;;2.58;1.48;;;;;;;28.10;35.85;100796.19;4972972;28;20042;-66
2023/03/18 09:32:41;;;;;;;3.17;1.30;;;;;;;28.31;35.90;100792.72;4956852;28;20035;-65
2023/03/18 09:35:08;;;;;;;2.80;1.30;;;;;;;28.54;35.83;100801.97;4957006;28;20027;-66
2023/03/18 09:37:34;;;;;;;1.75;1.30;;;;;;;28.68;35.08;100800.59;4956940;28;20087;-66
2023/03/18 09:40:00;;;;;;;7.25;1.27;;;;;;;28.91;35.24;100797.72;4973860;28;20030;-66
2023/03/18 09:42:44;;;;;;;1.83;1.17;;;;;;;29.43;34.38;100793.59;4957429;28;20035;-67
2023/03/18 09:45:19;;;;;;;2.38;1.52;;;;;;;30.24;33.70;100791.91;4973984;28;20042;-66
2023/03/18 09:47:59;;;;;;;3.65;1.63;;;;;;;32.30;31.24;100789.06;4956464;28;20039;-65
2023/03/18 09:51:04;;;;;;;1.58;1.10;;;;;;;33.39;29.80;100785.81;4973755;28;20031;-66
2023/03/18 09:53:49;;;;;;;4.72;1.17;;;;;;;32.24;31.21;100787.38;4955793;28;20039;-67
2023/03/18 09:56:20;;;;;;;2.13;1.10;;;;;;;32.17;31.98;100779.31;4972193;28;20039;-66
2023/03/18 09:59:11;;;;;;;1.35;1.15;;;;;;;32.33;31.48;100788.47;4960164;28;20528;-67
2023/03/18 10:01:37;;;;;;;1.52;1.08;;;;;;;32.57;30.98;100780.53;4960294;28;20053;-67
2023/03/18 10:04:12;;;;;;;2.08;1.15;;;;;;;32.80;30.56;100772.50;4976589;28;20019;-66
2023/03/18 10:06:41;;;;;;;1.38;0.88;;;;;;;32.60;30.43;100778.06;4975753;28;20034;-67
2023/03/18 10:09:21;;;;;;;2.50;1.17;;;;;;;31.99;31.63;100778.94;4976264;28;20035;-67
2023/03/18 10:11:47;;;;;;;3.22;1.15;;;;;;;31.66;30.88;100772.69;4976063;28;20035;-67
2023/03/18 10:14:25;;;;;;;3.30;1.25;;;;;;;31.40;31.04;100779.19;4959863;28;20098;-67
2023/03/18 10:17:00;;;;;;;1.73;1.10;;;;;;;31.38;30.78;100770.28;4977317;28;20035;-67
2023/03/18 10:19:27;;;;;;;3.53;1.20;;;;;;;31.73;30.47;100788.25;4959919;28;20122;-67
2023/03/18 10:21:53;;;;;;;2.05;0.90;;;;;;;31.99;30.16;100803.91;4959851;28;20030;-67
2023/03/18 10:24:21;;;;;;;1.00;0.90;;;;;;;32.39;29.56;100792.94;4977649;28;20072;-67
2023/03/18 10:27:17;;;;;;;0.93;0.73;;;;;;;32.70;29.23;100786.38;4975850;28;20494;-67
2023/03/18 10:30:05;;;;;;;1.95;0.68;;;;;;;31.92;30.47;100778.34;4959329;28;20422;-67
2023/03/18 10:32:41;;;;;;;2.08;0.88;;;;;;;31.25;31.13;100792.91;4975710;28;20035;-66
2023/03/18 10:35:23;;;;;;;2.40;1.05;;;;;;;30.64;31.00;100796.22;4960260;28;20459;-67
2023/03/18 10:38:08;;;;;;;1.63;0.70;;;;;;;30.43;31.36;100809.84;4975633;28;20110;-67
2023/03/18 10:40:36;;;;;;;1.73;0.70;;;;;;;29.98;31.11;100809.31;4975478;28;20057;-67
2023/03/18 10:43:03;;;;;;;1.02;0.55;;;;;;;29.68;31.62;100812.44;4959295;28;20113;-66
2023/03/18 10:45:31;;;;;;;1.52;0.75;;;;;;;29.89;30.65;100810.84;4959867;28;20022;-67
2023/03/18 10:48:07;;;;;;;0.95;0.75;;;;;;;30.24;30.68;100811.25;4975192;28;20125;-66
2023/03/18 10:50:36;;;;;;;1.33;0.60;;;;;;;30.17;30.59;100807.03;4975410;28;20070;-67
2023/03/18 10:53:23;;;;;;;2.22;0.60;;;;;;;29.74;31.14;100803.16;4959368;28;20403;-66
2023/03/18 10:55:58;;;;;;;0.90;0.70;;;;;;;29.24;31.59;100814.28;4976345;28;20106;-67
2023/03/18 10:58:26;;;;;;;2.40;0.93;;;;;;;28.98;32.32;100801.13;4975273;28;20039;-66
2023/03/18 11:00:52;;;;;;;1.48;0.70;;;;;;;28.67;31.54;100796.19;4959136;28;20027;-65
2023/03/18 11:03:23;;;;;;;1.63;1.08;;;;;;;28.41;31.81;100803.13;4975572;28;20059;-67
2023/03/18 11:05:49;;;;;;;0.50;0.40;;;;;;;28.14;32.22;100804.81;4955853;28;20042;-66
2023/03/18 11:08:28;;;;;;;1.77;1.17;;;;;;;27.74;32.60;100785.47;4939204;28;20039;-66
2023/03/18 11:10:53;;;;;;;1.13;0.43;;;;;;;27.63;32.73;100800.09;4957067;28;20062;-66
2023/03/18 11:13:20;;;;;;;5.68;0.57;;;;;;;27.44;32.75;100795.81;4940783;29;20035;-66
2023/03/18 11:15:55;;;;;;;1.80;0.60;;;;;;;27.23;33.15;100805.47;4924512;29;20033;-66
2023/03/18 11:18:23;;;;;;;1.23;0.63;;;;;;;27.06;33.35;100805.34;4955591;29;20063;-65
2023/03/18 11:21:00;;;;;;;1.02;0.80;;;;;;;26.93;33.32;100821.22;4955283;28;20032;-66
2023/03/18 11:23:47;;;;;;;1.17;0.40;;;;;;;26.83;32.96;100821.78;4955371;28;20038;-65
2023/03/18 11:26:21;;;;;;;2.92;0.80;;;;;;;26.59;33.19;100809.03;4940897;29;20035;-63